Alpachiri, Argentina
Current Conditions -  °F | °C
As of 9:00 AM on Friday 24 Oct 2014 (Local Time) from SAZN Reporting Station
Clear Clear  
Wind Chill: 57°   Ceiling: Unl
Heat Index: 57°   Visibility: 6mi
Dew Point: 43°   Wind: 8mph
Humidity: 59%   Direction: 90°E
Pressure: 30.15"   Gusts: NA
Location:  37.37°S, 63.77°W
Report Text: SAZN 241200Z 09007KT CAVOK 14/06 Q1021
Loading
Personal Weather Stations






























Interactive Weather Map New forecast layout! Learn more

10-Day Weather Forecast

Advertisements
Track Severe Weather on mobile